sensor_id;sensor_type;location;lat;lon;timestamp;P1;durP1;ratioP1;P2;durP2;ratioP2
66139;SDS011;52945;51.908;8.364;2023-05-07T00:00:50;6.03;;;3.63;;
66139;SDS011;52945;51.908;8.364;2023-05-07T00:03:51;7.88;;;3.80;;
66139;SDS011;52945;51.908;8.364;2023-05-07T00:09:52;7.70;;;4.60;;
66139;SDS011;52945;51.908;8.364;2023-05-07T00:15:53;8.88;;;4.93;;
66139;SDS011;52945;51.908;8.364;2023-05-07T00:18:53;10.88;;;5.05;;
66139;SDS011;52945;51.908;8.364;2023-05-07T00:21:54;7.30;;;4.28;;
66139;SDS011;52945;51.908;8.364;2023-05-07T00:24:55;9.55;;;4.65;;
66139;SDS011;52945;51.908;8.364;2023-05-07T00:27:56;8.77;;;4.95;;
66139;SDS011;52945;51.908;8.364;2023-05-07T00:31:02;9.35;;;4.93;;
66139;SDS011;52945;51.908;8.364;2023-05-07T00:34:03;10.25;;;4.55;;
66139;SDS011;52945;51.908;8.364;2023-05-07T00:40:04;9.73;;;5.05;;
66139;SDS011;52945;51.908;8.364;2023-05-07T00:43:07;9.93;;;5.22;;
66139;SDS011;52945;51.908;8.364;2023-05-07T00:46:07;8.27;;;5.32;;
66139;SDS011;52945;51.908;8.364;2023-05-07T00:52:09;8.25;;;5.38;;
66139;SDS011;52945;51.908;8.364;2023-05-07T00:55:13;8.75;;;5.07;;
66139;SDS011;52945;51.908;8.364;2023-05-07T00:58:14;11.63;;;5.50;;
66139;SDS011;52945;51.908;8.364;2023-05-07T01:01:15;9.70;;;5.20;;
66139;SDS011;52945;51.908;8.364;2023-05-07T01:04:18;10.98;;;6.25;;
66139;SDS011;52945;51.908;8.364;2023-05-07T01:07:19;13.18;;;5.85;;
66139;SDS011;52945;51.908;8.364;2023-05-07T01:10:19;10.55;;;5.47;;
66139;SDS011;52945;51.908;8.364;2023-05-07T01:16:21;10.77;;;5.25;;
66139;SDS011;52945;51.908;8.364;2023-05-07T01:22:29;11.02;;;5.55;;
66139;SDS011;52945;51.908;8.364;2023-05-07T01:25:32;10.27;;;5.93;;
66139;SDS011;52945;51.908;8.364;2023-05-07T01:28:33;13.75;;;6.45;;
66139;SDS011;52945;51.908;8.364;2023-05-07T01:31:33;10.80;;;5.47;;
66139;SDS011;52945;51.908;8.364;2023-05-07T01:34:35;12.77;;;6.30;;
66139;SDS011;52945;51.908;8.364;2023-05-07T01:37:37;9.85;;;5.75;;
66139;SDS011;52945;51.908;8.364;2023-05-07T01:40:40;12.73;;;6.18;;
66139;SDS011;52945;51.908;8.364;2023-05-07T01:43:41;13.38;;;6.20;;
66139;SDS011;52945;51.908;8.364;2023-05-07T01:46:42;11.27;;;5.85;;
66139;SDS011;52945;51.908;8.364;2023-05-07T01:49:43;11.18;;;6.13;;
66139;SDS011;52945;51.908;8.364;2023-05-07T01:52:43;9.48;;;5.38;;
66139;SDS011;52945;51.908;8.364;2023-05-07T01:55:44;16.98;;;6.40;;
66139;SDS011;52945;51.908;8.364;2023-05-07T02:01:48;10.63;;;5.68;;
66139;SDS011;52945;51.908;8.364;2023-05-07T02:07:50;12.13;;;5.72;;
66139;SDS011;52945;51.908;8.364;2023-05-07T02:10:50;10.75;;;5.90;;
66139;SDS011;52945;51.908;8.364;2023-05-07T02:16:53;9.77;;;5.25;;
66139;SDS011;52945;51.908;8.364;2023-05-07T02:22:54;11.93;;;5.53;;
66139;SDS011;52945;51.908;8.364;2023-05-07T02:28:55;11.70;;;6.00;;
66139;SDS011;52945;51.908;8.364;2023-05-07T02:34:56;12.15;;;6.63;;
66139;SDS011;52945;51.908;8.364;2023-05-07T02:40:57;14.55;;;7.25;;
66139;SDS011;52945;51.908;8.364;2023-05-07T02:43:57;13.43;;;6.32;;
66139;SDS011;52945;51.908;8.364;2023-05-07T02:46:58;13.52;;;6.55;;
66139;SDS011;52945;51.908;8.364;2023-05-07T02:52:59;14.43;;;6.35;;
66139;SDS011;52945;51.908;8.364;2023-05-07T02:56:00;11.45;;;6.82;;
66139;SDS011;52945;51.908;8.364;2023-05-07T02:59:01;11.57;;;6.13;;
66139;SDS011;52945;51.908;8.364;2023-05-07T03:02:01;11.68;;;6.43;;
66139;SDS011;52945;51.908;8.364;2023-05-07T03:08:03;13.35;;;6.50;;
66139;SDS011;52945;51.908;8.364;2023-05-07T03:11:04;12.82;;;7.35;;
66139;SDS011;52945;51.908;8.364;2023-05-07T03:14:05;14.15;;;7.10;;
66139;SDS011;52945;51.908;8.364;2023-05-07T03:17:05;14.35;;;7.60;;
66139;SDS011;52945;51.908;8.364;2023-05-07T03:20:06;14.07;;;7.18;;
66139;SDS011;52945;51.908;8.364;2023-05-07T03:23:07;12.75;;;7.00;;
66139;SDS011;52945;51.908;8.364;2023-05-07T03:26:08;14.30;;;7.05;;
66139;SDS011;52945;51.908;8.364;2023-05-07T03:29:08;16.25;;;7.78;;
66139;SDS011;52945;51.908;8.364;2023-05-07T03:32:09;16.75;;;7.72;;
66139;SDS011;52945;51.908;8.364;2023-05-07T03:35:09;14.10;;;7.13;;
66139;SDS011;52945;51.908;8.364;2023-05-07T03:38:10;14.65;;;6.57;;
66139;SDS011;52945;51.908;8.364;2023-05-07T03:41:11;13.73;;;7.13;;
66139;SDS011;52945;51.908;8.364;2023-05-07T03:47:12;14.57;;;6.75;;
66139;SDS011;52945;51.908;8.364;2023-05-07T03:50:13;11.93;;;6.55;;
66139;SDS011;52945;51.908;8.364;2023-05-07T03:53:14;13.70;;;6.93;;
66139;SDS011;52945;51.908;8.364;2023-05-07T03:59:15;12.45;;;6.80;;
66139;SDS011;52945;51.908;8.364;2023-05-07T04:02:16;14.32;;;7.32;;
66139;SDS011;52945;51.908;8.364;2023-05-07T04:05:16;14.93;;;7.50;;
66139;SDS011;52945;51.908;8.364;2023-05-07T04:08:17;13.90;;;6.85;;
66139;SDS011;52945;51.908;8.364;2023-05-07T04:11:17;13.50;;;7.43;;
66139;SDS011;52945;51.908;8.364;2023-05-07T04:14:18;16.33;;;8.05;;
66139;SDS011;52945;51.908;8.364;2023-05-07T04:17:19;17.80;;;6.95;;
66139;SDS011;52945;51.908;8.364;2023-05-07T04:23:20;12.68;;;6.47;;
66139;SDS011;52945;51.908;8.364;2023-05-07T04:29:21;13.13;;;6.68;;
66139;SDS011;52945;51.908;8.364;2023-05-07T04:32:22;14.65;;;6.78;;
66139;SDS011;52945;51.908;8.364;2023-05-07T04:35:24;17.30;;;7.47;;
66139;SDS011;52945;51.908;8.364;2023-05-07T04:38:25;14.82;;;7.35;;
66139;SDS011;52945;51.908;8.364;2023-05-07T04:41:26;14.77;;;7.47;;
66139;SDS011;52945;51.908;8.364;2023-05-07T04:44:26;15.95;;;7.70;;
66139;SDS011;52945;51.908;8.364;2023-05-07T04:47:27;15.02;;;7.40;;
66139;SDS011;52945;51.908;8.364;2023-05-07T04:50:28;15.45;;;8.65;;
66139;SDS011;52945;51.908;8.364;2023-05-07T04:53:28;14.80;;;7.63;;
66139;SDS011;52945;51.908;8.364;2023-05-07T04:56:29;17.98;;;8.20;;
66139;SDS011;52945;51.908;8.364;2023-05-07T04:59:30;16.45;;;7.25;;
66139;SDS011;52945;51.908;8.364;2023-05-07T05:02:30;15.55;;;7.40;;
66139;SDS011;52945;51.908;8.364;2023-05-07T05:05:31;17.13;;;8.27;;
66139;SDS011;52945;51.908;8.364;2023-05-07T05:08:31;14.82;;;7.85;;
66139;SDS011;52945;51.908;8.364;2023-05-07T05:11:32;17.27;;;9.02;;
66139;SDS011;52945;51.908;8.364;2023-05-07T05:14:33;17.00;;;8.02;;
66139;SDS011;52945;51.908;8.364;2023-05-07T05:17:33;16.75;;;8.00;;
66139;SDS011;52945;51.908;8.364;2023-05-07T05:20:35;16.85;;;7.43;;
66139;SDS011;52945;51.908;8.364;2023-05-07T05:23:35;17.02;;;8.18;;
66139;SDS011;52945;51.908;8.364;2023-05-07T05:26:36;15.95;;;7.22;;
66139;SDS011;52945;51.908;8.364;2023-05-07T05:29:37;16.35;;;7.82;;
66139;SDS011;52945;51.908;8.364;2023-05-07T05:32:37;17.20;;;7.88;;
66139;SDS011;52945;51.908;8.364;2023-05-07T05:35:38;19.23;;;8.15;;
66139;SDS011;52945;51.908;8.364;2023-05-07T05:38:39;19.05;;;8.35;;
66139;SDS011;52945;51.908;8.364;2023-05-07T05:41:40;16.05;;;7.95;;
66139;SDS011;52945;51.908;8.364;2023-05-07T05:44:40;17.33;;;8.23;;
66139;SDS011;52945;51.908;8.364;2023-05-07T05:47:41;18.13;;;9.30;;
66139;SDS011;52945;51.908;8.364;2023-05-07T05:50:42;16.13;;;8.05;;
66139;SDS011;52945;51.908;8.364;2023-05-07T05:53:42;15.85;;;7.78;;
66139;SDS011;52945;51.908;8.364;2023-05-07T05:56:43;15.63;;;7.93;;
66139;SDS011;52945;51.908;8.364;2023-05-07T05:59:44;16.55;;;7.50;;
66139;SDS011;52945;51.908;8.364;2023-05-07T06:02:44;16.13;;;7.57;;
66139;SDS011;52945;51.908;8.364;2023-05-07T06:05:45;18.98;;;8.43;;
66139;SDS011;52945;51.908;8.364;2023-05-07T06:08:46;18.05;;;7.97;;
66139;SDS011;52945;51.908;8.364;2023-05-07T06:11:46;17.55;;;8.20;;
66139;SDS011;52945;51.908;8.364;2023-05-07T06:14:47;18.30;;;8.13;;
66139;SDS011;52945;51.908;8.364;2023-05-07T06:20:49;18.60;;;8.07;;
66139;SDS011;52945;51.908;8.364;2023-05-07T06:23:49;16.10;;;7.85;;
66139;SDS011;52945;51.908;8.364;2023-05-07T06:26:52;17.13;;;8.30;;
66139;SDS011;52945;51.908;8.364;2023-05-07T06:29:52;15.85;;;7.70;;
66139;SDS011;52945;51.908;8.364;2023-05-07T06:32:53;16.58;;;7.38;;
66139;SDS011;52945;51.908;8.364;2023-05-07T06:35:53;17.52;;;8.23;;
66139;SDS011;52945;51.908;8.364;2023-05-07T06:38:54;17.75;;;8.45;;
66139;SDS011;52945;51.908;8.364;2023-05-07T06:41:55;17.50;;;7.22;;
66139;SDS011;52945;51.908;8.364;2023-05-07T06:44:55;16.42;;;7.45;;
66139;SDS011;52945;51.908;8.364;2023-05-07T06:47:56;13.60;;;6.63;;
66139;SDS011;52945;51.908;8.364;2023-05-07T06:50:56;18.83;;;8.05;;
66139;SDS011;52945;51.908;8.364;2023-05-07T06:53:57;15.70;;;7.28;;
66139;SDS011;52945;51.908;8.364;2023-05-07T06:56:58;15.05;;;7.18;;
66139;SDS011;52945;51.908;8.364;2023-05-07T06:59:58;17.65;;;7.00;;
66139;SDS011;52945;51.908;8.364;2023-05-07T07:02:59;17.58;;;7.00;;
66139;SDS011;52945;51.908;8.364;2023-05-07T07:06:00;13.50;;;6.22;;
66139;SDS011;52945;51.908;8.364;2023-05-07T07:09:02;16.48;;;7.22;;
66139;SDS011;52945;51.908;8.364;2023-05-07T07:12:02;15.55;;;7.07;;
66139;SDS011;52945;51.908;8.364;2023-05-07T07:15:03;14.38;;;6.95;;
66139;SDS011;52945;51.908;8.364;2023-05-07T07:18:04;15.07;;;7.28;;
66139;SDS011;52945;51.908;8.364;2023-05-07T07:21:05;13.93;;;7.15;;
66139;SDS011;52945;51.908;8.364;2023-05-07T07:24:05;16.02;;;6.38;;
66139;SDS011;52945;51.908;8.364;2023-05-07T07:27:06;13.00;;;6.72;;
66139;SDS011;52945;51.908;8.364;2023-05-07T07:30:06;14.27;;;6.53;;
66139;SDS011;52945;51.908;8.364;2023-05-07T07:33:08;14.25;;;7.10;;
66139;SDS011;52945;51.908;8.364;2023-05-07T07:36:09;13.38;;;6.38;;
66139;SDS011;52945;51.908;8.364;2023-05-07T07:39:09;12.25;;;6.15;;
66139;SDS011;52945;51.908;8.364;2023-05-07T07:42:10;14.05;;;6.53;;
66139;SDS011;52945;51.908;8.364;2023-05-07T07:45:10;16.25;;;7.65;;
66139;SDS011;52945;51.908;8.364;2023-05-07T07:51:12;13.15;;;6.07;;
66139;SDS011;52945;51.908;8.364;2023-05-07T07:54:13;16.92;;;6.70;;
66139;SDS011;52945;51.908;8.364;2023-05-07T07:57:13;15.77;;;6.72;;
66139;SDS011;52945;51.908;8.364;2023-05-07T08:00:14;11.52;;;5.93;;
66139;SDS011;52945;51.908;8.364;2023-05-07T08:03:15;12.50;;;6.03;;
66139;SDS011;52945;51.908;8.364;2023-05-07T08:06:16;11.77;;;6.70;;
66139;SDS011;52945;51.908;8.364;2023-05-07T08:09:17;13.07;;;6.18;;
66139;SDS011;52945;51.908;8.364;2023-05-07T08:12:17;11.55;;;5.47;;
66139;SDS011;52945;51.908;8.364;2023-05-07T08:15:18;11.02;;;5.32;;
66139;SDS011;52945;51.908;8.364;2023-05-07T08:18:19;11.25;;;6.05;;
66139;SDS011;52945;51.908;8.364;2023-05-07T08:21:20;13.40;;;5.75;;
66139;SDS011;52945;51.908;8.364;2023-05-07T08:27:21;11.95;;;5.43;;
66139;SDS011;52945;51.908;8.364;2023-05-07T08:30:21;10.82;;;5.20;;
66139;SDS011;52945;51.908;8.364;2023-05-07T08:33:22;10.43;;;5.57;;
66139;SDS011;52945;51.908;8.364;2023-05-07T08:36:22;12.13;;;5.68;;
66139;SDS011;52945;51.908;8.364;2023-05-07T08:42:25;9.93;;;4.80;;
66139;SDS011;52945;51.908;8.364;2023-05-07T08:45:28;10.65;;;5.15;;
66139;SDS011;52945;51.908;8.364;2023-05-07T08:48:32;12.07;;;5.70;;
66139;SDS011;52945;51.908;8.364;2023-05-07T08:54:33;9.70;;;4.38;;
66139;SDS011;52945;51.908;8.364;2023-05-07T08:57:37;10.63;;;5.22;;
66139;SDS011;52945;51.908;8.364;2023-05-07T09:03:40;8.73;;;4.20;;
66139;SDS011;52945;51.908;8.364;2023-05-07T09:06:41;9.35;;;4.95;;
66139;SDS011;52945;51.908;8.364;2023-05-07T09:12:44;9.65;;;4.40;;
66139;SDS011;52945;51.908;8.364;2023-05-07T09:15:46;10.35;;;4.82;;
66139;SDS011;52945;51.908;8.364;2023-05-07T09:21:57;7.55;;;3.97;;
66139;SDS011;52945;51.908;8.364;2023-05-07T09:24:59;8.43;;;4.15;;
66139;SDS011;52945;51.908;8.364;2023-05-07T09:31:01;8.35;;;4.38;;
66139;SDS011;52945;51.908;8.364;2023-05-07T09:34:01;7.70;;;4.28;;
66139;SDS011;52945;51.908;8.364;2023-05-07T09:37:04;6.55;;;3.42;;
66139;SDS011;52945;51.908;8.364;2023-05-07T09:40:06;7.80;;;4.50;;
66139;SDS011;52945;51.908;8.364;2023-05-07T09:43:11;8.80;;;4.65;;
66139;SDS011;52945;51.908;8.364;2023-05-07T09:46:13;7.50;;;3.90;;
66139;SDS011;52945;51.908;8.364;2023-05-07T09:49:22;9.55;;;4.72;;
66139;SDS011;52945;51.908;8.364;2023-05-07T09:52:23;10.32;;;5.05;;
66139;SDS011;52945;51.908;8.364;2023-05-07T09:55:28;10.60;;;5.03;;
66139;SDS011;52945;51.908;8.364;2023-05-07T09:58:29;8.75;;;4.97;;
66139;SDS011;52945;51.908;8.364;2023-05-07T10:01:32;11.25;;;4.78;;
66139;SDS011;52945;51.908;8.364;2023-05-07T10:04:35;9.40;;;4.50;;
66139;SDS011;52945;51.908;8.364;2023-05-07T10:07:36;8.30;;;4.60;;
66139;SDS011;52945;51.908;8.364;2023-05-07T10:10:37;8.00;;;4.85;;
66139;SDS011;52945;51.908;8.364;2023-05-07T10:13:38;7.80;;;3.95;;
66139;SDS011;52945;51.908;8.364;2023-05-07T10:16:40;8.52;;;4.40;;
66139;SDS011;52945;51.908;8.364;2023-05-07T10:19:42;9.52;;;4.93;;
66139;SDS011;52945;51.908;8.364;2023-05-07T10:22:46;8.85;;;5.15;;
66139;SDS011;52945;51.908;8.364;2023-05-07T10:25:48;9.48;;;4.70;;
66139;SDS011;52945;51.908;8.364;2023-05-07T10:28:50;10.00;;;4.82;;
66139;SDS011;52945;51.908;8.364;2023-05-07T10:31:59;8.10;;;4.03;;
66139;SDS011;52945;51.908;8.364;2023-05-07T10:35:21;8.35;;;4.53;;
66139;SDS011;52945;51.908;8.364;2023-05-07T10:38:25;8.55;;;4.03;;
66139;SDS011;52945;51.908;8.364;2023-05-07T10:41:26;7.88;;;4.40;;
66139;SDS011;52945;51.908;8.364;2023-05-07T10:44:27;8.48;;;4.90;;
66139;SDS011;52945;51.908;8.364;2023-05-07T10:47:29;7.78;;;4.22;;
66139;SDS011;52945;51.908;8.364;2023-05-07T10:50:30;9.63;;;4.78;;
66139;SDS011;52945;51.908;8.364;2023-05-07T10:53:30;9.23;;;4.97;;
66139;SDS011;52945;51.908;8.364;2023-05-07T10:56:31;8.00;;;4.35;;
66139;SDS011;52945;51.908;8.364;2023-05-07T10:59:32;11.10;;;4.20;;
66139;SDS011;52945;51.908;8.364;2023-05-07T11:09:11;7.45;;;4.00;;
66139;SDS011;52945;51.908;8.364;2023-05-07T11:12:11;10.30;;;4.68;;
66139;SDS011;52945;51.908;8.364;2023-05-07T11:15:15;8.52;;;4.40;;
66139;SDS011;52945;51.908;8.364;2023-05-07T11:18:55;10.30;;;4.18;;
66139;SDS011;52945;51.908;8.364;2023-05-07T11:21:56;8.40;;;4.28;;
66139;SDS011;52945;51.908;8.364;2023-05-07T11:24:59;7.07;;;4.18;;
66139;SDS011;52945;51.908;8.364;2023-05-07T11:28:06;8.30;;;4.60;;
66139;SDS011;52945;51.908;8.364;2023-05-07T11:31:10;7.00;;;3.92;;
66139;SDS011;52945;51.908;8.364;2023-05-07T11:34:11;6.90;;;3.92;;
66139;SDS011;52945;51.908;8.364;2023-05-07T11:37:16;6.40;;;3.75;;
66139;SDS011;52945;51.908;8.364;2023-05-07T11:40:17;5.70;;;3.65;;
66139;SDS011;52945;51.908;8.364;2023-05-07T11:43:18;6.85;;;3.97;;
66139;SDS011;52945;51.908;8.364;2023-05-07T11:46:19;6.28;;;3.53;;
66139;SDS011;52945;51.908;8.364;2023-05-07T11:49:20;6.88;;;3.72;;
66139;SDS011;52945;51.908;8.364;2023-05-07T11:52:24;5.75;;;3.42;;
66139;SDS011;52945;51.908;8.364;2023-05-07T11:55:25;7.95;;;3.70;;
66139;SDS011;52945;51.908;8.364;2023-05-07T11:58:26;6.88;;;3.90;;
66139;SDS011;52945;51.908;8.364;2023-05-07T12:01:26;6.97;;;3.70;;
66139;SDS011;52945;51.908;8.364;2023-05-07T12:04:29;6.15;;;3.67;;
66139;SDS011;52945;51.908;8.364;2023-05-07T12:07:30;5.80;;;3.35;;
66139;SDS011;52945;51.908;8.364;2023-05-07T12:10:33;5.70;;;3.58;;
66139;SDS011;52945;51.908;8.364;2023-05-07T12:13:34;6.38;;;4.07;;
66139;SDS011;52945;51.908;8.364;2023-05-07T12:16:35;5.07;;;3.22;;
66139;SDS011;52945;51.908;8.364;2023-05-07T12:19:36;7.30;;;3.08;;
66139;SDS011;52945;51.908;8.364;2023-05-07T12:22:37;6.07;;;3.70;;
66139;SDS011;52945;51.908;8.364;2023-05-07T12:25:38;5.00;;;3.45;;
66139;SDS011;52945;51.908;8.364;2023-05-07T12:28:43;4.75;;;2.95;;
66139;SDS011;52945;51.908;8.364;2023-05-07T12:31:43;6.55;;;3.65;;
66139;SDS011;52945;51.908;8.364;2023-05-07T12:34:44;6.30;;;3.60;;
66139;SDS011;52945;51.908;8.364;2023-05-07T12:37:54;5.07;;;3.10;;
66139;SDS011;52945;51.908;8.364;2023-05-07T12:40:55;4.50;;;2.90;;
66139;SDS011;52945;51.908;8.364;2023-05-07T12:43:56;4.68;;;3.00;;
66139;SDS011;52945;51.908;8.364;2023-05-07T12:46:57;4.47;;;2.50;;
66139;SDS011;52945;51.908;8.364;2023-05-07T12:49:58;6.53;;;2.67;;
66139;SDS011;52945;51.908;8.364;2023-05-07T12:52:59;5.22;;;3.13;;
66139;SDS011;52945;51.908;8.364;2023-05-07T12:56:00;4.97;;;2.80;;
66139;SDS011;52945;51.908;8.364;2023-05-07T12:59:01;4.00;;;2.70;;
66139;SDS011;52945;51.908;8.364;2023-05-07T13:02:01;4.95;;;2.53;;
66139;SDS011;52945;51.908;8.364;2023-05-07T13:05:02;4.00;;;2.65;;
66139;SDS011;52945;51.908;8.364;2023-05-07T13:08:03;4.68;;;2.47;;
66139;SDS011;52945;51.908;8.364;2023-05-07T13:11:04;2.95;;;2.20;;
66139;SDS011;52945;51.908;8.364;2023-05-07T13:14:05;4.95;;;2.65;;
66139;SDS011;52945;51.908;8.364;2023-05-07T13:17:05;3.63;;;2.50;;
66139;SDS011;52945;51.908;8.364;2023-05-07T13:20:06;3.88;;;2.50;;
66139;SDS011;52945;51.908;8.364;2023-05-07T13:23:09;4.68;;;2.42;;
66139;SDS011;52945;51.908;8.364;2023-05-07T13:26:09;3.05;;;2.50;;
66139;SDS011;52945;51.908;8.364;2023-05-07T13:29:10;4.70;;;2.63;;
66139;SDS011;52945;51.908;8.364;2023-05-07T13:32:10;4.97;;;2.38;;
66139;SDS011;52945;51.908;8.364;2023-05-07T13:35:11;4.75;;;2.70;;
66139;SDS011;52945;51.908;8.364;2023-05-07T13:38:12;2.85;;;2.22;;
66139;SDS011;52945;51.908;8.364;2023-05-07T13:41:12;3.88;;;2.50;;
66139;SDS011;52945;51.908;8.364;2023-05-07T13:44:14;2.90;;;1.98;;
66139;SDS011;52945;51.908;8.364;2023-05-07T13:47:14;4.60;;;2.30;;
66139;SDS011;52945;51.908;8.364;2023-05-07T13:50:16;4.45;;;2.40;;
66139;SDS011;52945;51.908;8.364;2023-05-07T13:53:17;4.20;;;2.17;;
66139;SDS011;52945;51.908;8.364;2023-05-07T13:56:18;3.03;;;2.15;;
66139;SDS011;52945;51.908;8.364;2023-05-07T13:59:20;3.25;;;2.30;;
66139;SDS011;52945;51.908;8.364;2023-05-07T14:02:20;4.00;;;2.35;;
66139;SDS011;52945;51.908;8.364;2023-05-07T14:05:21;4.50;;;2.30;;
66139;SDS011;52945;51.908;8.364;2023-05-07T14:08:25;2.83;;;2.40;;
66139;SDS011;52945;51.908;8.364;2023-05-07T14:11:26;3.80;;;2.60;;
66139;SDS011;52945;51.908;8.364;2023-05-07T14:14:27;4.43;;;2.58;;
66139;SDS011;52945;51.908;8.364;2023-05-07T14:17:27;4.38;;;2.50;;
66139;SDS011;52945;51.908;8.364;2023-05-07T14:20:28;5.10;;;2.50;;
66139;SDS011;52945;51.908;8.364;2023-05-07T14:23:30;2.67;;;2.20;;
66139;SDS011;52945;51.908;8.364;2023-05-07T14:26:31;4.93;;;2.70;;
66139;SDS011;52945;51.908;8.364;2023-05-07T14:29:32;4.80;;;2.60;;
66139;SDS011;52945;51.908;8.364;2023-05-07T14:32:35;2.90;;;2.05;;
66139;SDS011;52945;51.908;8.364;2023-05-07T14:35:36;3.90;;;2.30;;
66139;SDS011;52945;51.908;8.364;2023-05-07T14:38:36;3.15;;;2.30;;
66139;SDS011;52945;51.908;8.364;2023-05-07T14:41:37;3.15;;;2.50;;
66139;SDS011;52945;51.908;8.364;2023-05-07T14:44:37;3.33;;;2.35;;
66139;SDS011;52945;51.908;8.364;2023-05-07T14:47:40;3.75;;;2.25;;
66139;SDS011;52945;51.908;8.364;2023-05-07T14:50:41;4.22;;;2.70;;
66139;SDS011;52945;51.908;8.364;2023-05-07T14:53:42;3.60;;;2.40;;
66139;SDS011;52945;51.908;8.364;2023-05-07T14:56:42;4.32;;;2.53;;
66139;SDS011;52945;51.908;8.364;2023-05-07T14:59:43;3.33;;;2.15;;
66139;SDS011;52945;51.908;8.364;2023-05-07T15:02:44;4.07;;;2.60;;
66139;SDS011;52945;51.908;8.364;2023-05-07T15:05:44;5.28;;;2.60;;
66139;SDS011;52945;51.908;8.364;2023-05-07T15:08:45;4.00;;;2.90;;
66139;SDS011;52945;51.908;8.364;2023-05-07T15:11:45;4.45;;;2.60;;
66139;SDS011;52945;51.908;8.364;2023-05-07T15:14:46;3.85;;;2.90;;
66139;SDS011;52945;51.908;8.364;2023-05-07T15:17:47;3.83;;;2.55;;
66139;SDS011;52945;51.908;8.364;2023-05-07T15:20:47;4.25;;;2.60;;
66139;SDS011;52945;51.908;8.364;2023-05-07T15:23:48;4.40;;;2.72;;
66139;SDS011;52945;51.908;8.364;2023-05-07T15:26:48;5.40;;;3.03;;
66139;SDS011;52945;51.908;8.364;2023-05-07T15:29:49;4.88;;;2.97;;
66139;SDS011;52945;51.908;8.364;2023-05-07T15:32:50;4.30;;;3.08;;
66139;SDS011;52945;51.908;8.364;2023-05-07T15:35:51;6.50;;;3.30;;
66139;SDS011;52945;51.908;8.364;2023-05-07T15:38:51;4.38;;;3.13;;
66139;SDS011;52945;51.908;8.364;2023-05-07T15:41:52;5.25;;;3.30;;
66139;SDS011;52945;51.908;8.364;2023-05-07T15:44:52;4.97;;;3.10;;
66139;SDS011;52945;51.908;8.364;2023-05-07T15:47:53;4.90;;;3.40;;
66139;SDS011;52945;51.908;8.364;2023-05-07T15:50:54;5.13;;;2.90;;
66139;SDS011;52945;51.908;8.364;2023-05-07T15:53:54;6.28;;;3.50;;
66139;SDS011;52945;51.908;8.364;2023-05-07T15:56:55;5.72;;;3.40;;
66139;SDS011;52945;51.908;8.364;2023-05-07T15:59:56;5.55;;;3.38;;
66139;SDS011;52945;51.908;8.364;2023-05-07T16:02:56;6.88;;;3.30;;
66139;SDS011;52945;51.908;8.364;2023-05-07T16:05:57;5.13;;;3.10;;
66139;SDS011;52945;51.908;8.364;2023-05-07T16:08:59;5.30;;;3.45;;
66139;SDS011;52945;51.908;8.364;2023-05-07T16:12:00;6.25;;;3.38;;
66139;SDS011;52945;51.908;8.364;2023-05-07T16:15:00;6.72;;;3.25;;
66139;SDS011;52945;51.908;8.364;2023-05-07T16:18:01;7.40;;;3.92;;
66139;SDS011;52945;51.908;8.364;2023-05-07T16:21:02;5.10;;;3.60;;
66139;SDS011;52945;51.908;8.364;2023-05-07T16:24:03;6.40;;;3.72;;
66139;SDS011;52945;51.908;8.364;2023-05-07T16:27:03;7.28;;;4.10;;
66139;SDS011;52945;51.908;8.364;2023-05-07T16:30:05;5.55;;;3.40;;
66139;SDS011;52945;51.908;8.364;2023-05-07T16:33:07;6.50;;;3.92;;
66139;SDS011;52945;51.908;8.364;2023-05-07T16:36:08;5.93;;;3.25;;
66139;SDS011;52945;51.908;8.364;2023-05-07T16:39:08;6.50;;;4.20;;
66139;SDS011;52945;51.908;8.364;2023-05-07T16:42:09;6.68;;;3.78;;
66139;SDS011;52945;51.908;8.364;2023-05-07T16:45:10;5.50;;;3.75;;
66139;SDS011;52945;51.908;8.364;2023-05-07T16:48:10;7.20;;;4.47;;
66139;SDS011;52945;51.908;8.364;2023-05-07T16:51:11;7.65;;;4.07;;
66139;SDS011;52945;51.908;8.364;2023-05-07T16:54:12;5.65;;;3.50;;
66139;SDS011;52945;51.908;8.364;2023-05-07T16:57:12;6.93;;;4.55;;
66139;SDS011;52945;51.908;8.364;2023-05-07T17:00:13;6.45;;;3.92;;
66139;SDS011;52945;51.908;8.364;2023-05-07T17:03:14;7.28;;;3.90;;
66139;SDS011;52945;51.908;8.364;2023-05-07T17:06:15;7.53;;;4.60;;
66139;SDS011;52945;51.908;8.364;2023-05-07T17:09:15;6.25;;;4.03;;
66139;SDS011;52945;51.908;8.364;2023-05-07T17:12:16;7.78;;;4.00;;
66139;SDS011;52945;51.908;8.364;2023-05-07T17:15:16;9.75;;;4.40;;
66139;SDS011;52945;51.908;8.364;2023-05-07T17:18:18;7.55;;;4.30;;
66139;SDS011;52945;51.908;8.364;2023-05-07T17:21:18;6.90;;;3.80;;
66139;SDS011;52945;51.908;8.364;2023-05-07T17:24:19;7.80;;;4.13;;
66139;SDS011;52945;51.908;8.364;2023-05-07T17:27:19;12.50;;;4.60;;
66139;SDS011;52945;51.908;8.364;2023-05-07T17:30:20;7.50;;;4.13;;
66139;SDS011;52945;51.908;8.364;2023-05-07T17:33:21;6.43;;;4.35;;
66139;SDS011;52945;51.908;8.364;2023-05-07T17:36:21;7.70;;;4.88;;
66139;SDS011;52945;51.908;8.364;2023-05-07T17:39:22;7.38;;;4.38;;
66139;SDS011;52945;51.908;8.364;2023-05-07T17:42:22;7.78;;;4.75;;
66139;SDS011;52945;51.908;8.364;2023-05-07T17:45:23;7.82;;;4.43;;
66139;SDS011;52945;51.908;8.364;2023-05-07T17:48:24;7.90;;;4.00;;
66139;SDS011;52945;51.908;8.364;2023-05-07T17:51:25;6.22;;;4.00;;
66139;SDS011;52945;51.908;8.364;2023-05-07T17:54:28;7.57;;;4.13;;
66139;SDS011;52945;51.908;8.364;2023-05-07T17:57:29;7.80;;;4.65;;
66139;SDS011;52945;51.908;8.364;2023-05-07T18:00:30;6.78;;;3.92;;
66139;SDS011;52945;51.908;8.364;2023-05-07T18:03:31;6.72;;;3.80;;
66139;SDS011;52945;51.908;8.364;2023-05-07T18:06:33;7.20;;;4.43;;
66139;SDS011;52945;51.908;8.364;2023-05-07T18:12:34;7.40;;;4.30;;
66139;SDS011;52945;51.908;8.364;2023-05-07T18:15:34;8.85;;;4.45;;
66139;SDS011;52945;51.908;8.364;2023-05-07T18:18:35;6.28;;;3.78;;
66139;SDS011;52945;51.908;8.364;2023-05-07T18:21:36;8.07;;;4.05;;
66139;SDS011;52945;51.908;8.364;2023-05-07T18:24:36;6.57;;;3.83;;
66139;SDS011;52945;51.908;8.364;2023-05-07T18:27:37;10.20;;;4.22;;
66139;SDS011;52945;51.908;8.364;2023-05-07T18:30:37;6.45;;;4.00;;
66139;SDS011;52945;51.908;8.364;2023-05-07T18:33:38;7.00;;;4.30;;
66139;SDS011;52945;51.908;8.364;2023-05-07T18:36:38;6.25;;;3.90;;
66139;SDS011;52945;51.908;8.364;2023-05-07T18:39:39;6.20;;;3.72;;
66139;SDS011;52945;51.908;8.364;2023-05-07T18:42:42;6.45;;;3.67;;
66139;SDS011;52945;51.908;8.364;2023-05-07T18:45:43;6.60;;;3.75;;
66139;SDS011;52945;51.908;8.364;2023-05-07T18:48:47;5.40;;;3.80;;
66139;SDS011;52945;51.908;8.364;2023-05-07T18:51:47;8.55;;;4.03;;
66139;SDS011;52945;51.908;8.364;2023-05-07T18:54:48;6.78;;;4.15;;
66139;SDS011;52945;51.908;8.364;2023-05-07T18:57:49;6.90;;;4.13;;
66139;SDS011;52945;51.908;8.364;2023-05-07T19:00:49;8.25;;;3.83;;
66139;SDS011;52945;51.908;8.364;2023-05-07T19:03:50;8.13;;;4.32;;
66139;SDS011;52945;51.908;8.364;2023-05-07T19:09:51;6.95;;;3.80;;
66139;SDS011;52945;51.908;8.364;2023-05-07T19:15:54;5.00;;;3.58;;
66139;SDS011;52945;51.908;8.364;2023-05-07T19:18:55;4.93;;;3.30;;
66139;SDS011;52945;51.908;8.364;2023-05-07T19:24:56;5.30;;;3.53;;
66139;SDS011;52945;51.908;8.364;2023-05-07T19:30:58;5.82;;;3.47;;
66139;SDS011;52945;51.908;8.364;2023-05-07T19:36:59;5.53;;;3.65;;
66139;SDS011;52945;51.908;8.364;2023-05-07T19:43:04;6.13;;;3.42;;
66139;SDS011;52945;51.908;8.364;2023-05-07T19:49:05;5.57;;;3.35;;
66139;SDS011;52945;51.908;8.364;2023-05-07T19:55:06;4.65;;;3.17;;
66139;SDS011;52945;51.908;8.364;2023-05-07T19:58:07;4.97;;;3.35;;
66139;SDS011;52945;51.908;8.364;2023-05-07T20:04:09;5.60;;;3.65;;
66139;SDS011;52945;51.908;8.364;2023-05-07T20:10:10;5.25;;;3.50;;